sensor_id;sensor_type;location;lat;lon;timestamp;pressure;altitude;pressure_sealevel;temperature;humidity
54556;BME280;57291;37.520;15.106;2023-03-21T00:01:51;101253.44;;;12.25;100.00
54556;BME280;57291;37.520;15.106;2023-03-21T00:04:21;101257.78;;;12.26;100.00
54556;BME280;57291;37.520;15.106;2023-03-21T00:06:48;101263.22;;;12.26;100.00
54556;BME280;57291;37.520;15.106;2023-03-21T00:09:16;101264.84;;;12.27;100.00
54556;BME280;57291;37.520;15.106;2023-03-21T00:11:45;101263.97;;;12.31;100.00
54556;BME280;57291;37.520;15.106;2023-03-21T00:14:12;101260.34;;;12.36;100.00
54556;BME280;57291;37.520;15.106;2023-03-21T00:16:46;101247.97;;;12.43;100.00
54556;BME280;57291;37.520;15.106;2023-03-21T00:19:17;101255.66;;;12.41;100.00
54556;BME280;57291;37.520;15.106;2023-03-21T00:21:46;101248.88;;;12.39;100.00
54556;BME280;57291;37.520;15.106;2023-03-21T00:24:35;101266.13;;;12.34;100.00
54556;BME280;57291;37.520;15.106;2023-03-21T00:27:03;101259.81;;;12.34;100.00
54556;BME280;57291;37.520;15.106;2023-03-21T00:29:53;101265.28;;;12.34;100.00
54556;BME280;57291;37.520;15.106;2023-03-21T00:32:21;101260.66;;;12.34;100.00
54556;BME280;57291;37.520;15.106;2023-03-21T00:34:48;101250.03;;;12.33;100.00
54556;BME280;57291;37.520;15.106;2023-03-21T00:37:36;101242.16;;;12.31;100.00
54556;BME280;57291;37.520;15.106;2023-03-21T00:40:03;101254.16;;;12.30;100.00
54556;BME280;57291;37.520;15.106;2023-03-21T00:42:51;101240.63;;;12.25;100.00
54556;BME280;57291;37.520;15.106;2023-03-21T00:45:18;101256.16;;;12.25;100.00
54556;BME280;57291;37.520;15.106;2023-03-21T00:47:47;101255.09;;;12.20;100.00
54556;BME280;57291;37.520;15.106;2023-03-21T00:50:15;101246.13;;;12.20;100.00
54556;BME280;57291;37.520;15.106;2023-03-21T00:52:43;101245.63;;;12.18;100.00
54556;BME280;57291;37.520;15.106;2023-03-21T00:55:15;101234.78;;;12.13;100.00
54556;BME280;57291;37.520;15.106;2023-03-21T00:57:42;101230.72;;;12.10;100.00
54556;BME280;57291;37.520;15.106;2023-03-21T01:00:19;101237.28;;;12.09;100.00
54556;BME280;57291;37.520;15.106;2023-03-21T01:02:46;101226.06;;;12.11;100.00
54556;BME280;57291;37.520;15.106;2023-03-21T01:05:45;101219.53;;;12.12;100.00
54556;BME280;57291;37.520;15.106;2023-03-21T01:08:38;101220.56;;;12.16;100.00
54556;BME280;57291;37.520;15.106;2023-03-21T01:11:21;101221.16;;;12.13;100.00
54556;BME280;57291;37.520;15.106;2023-03-21T01:13:49;101222.78;;;12.14;100.00
54556;BME280;57291;37.520;15.106;2023-03-21T01:16:27;101226.03;;;12.16;100.00
54556;BME280;57291;37.520;15.106;2023-03-21T01:18:55;101218.97;;;12.15;100.00
54556;BME280;57291;37.520;15.106;2023-03-21T01:21:22;101204.81;;;12.13;100.00
54556;BME280;57291;37.520;15.106;2023-03-21T01:23:50;101198.72;;;12.21;100.00
54556;BME280;57291;37.520;15.106;2023-03-21T01:26:17;101192.97;;;12.23;100.00
54556;BME280;57291;37.520;15.106;2023-03-21T01:28:45;101191.34;;;12.22;100.00
54556;BME280;57291;37.520;15.106;2023-03-21T01:31:14;101189.50;;;12.17;100.00
54556;BME280;57291;37.520;15.106;2023-03-21T01:33:42;101191.19;;;12.13;100.00
54556;BME280;57291;37.520;15.106;2023-03-21T01:36:18;101194.50;;;12.10;100.00
54556;BME280;57291;37.520;15.106;2023-03-21T01:38:52;101210.25;;;12.13;100.00
54556;BME280;57291;37.520;15.106;2023-03-21T01:41:27;101218.88;;;12.20;100.00
54556;BME280;57291;37.520;15.106;2023-03-21T01:44:17;101211.66;;;12.29;100.00
54556;BME280;57291;37.520;15.106;2023-03-21T01:46:50;101211.59;;;12.34;100.00
54556;BME280;57291;37.520;15.106;2023-03-21T01:49:46;101208.03;;;12.34;100.00
54556;BME280;57291;37.520;15.106;2023-03-21T01:52:33;101204.97;;;12.40;100.00
54556;BME280;57291;37.520;15.106;2023-03-21T01:55:14;101194.66;;;12.37;100.00
54556;BME280;57291;37.520;15.106;2023-03-21T01:57:59;101197.28;;;12.42;100.00
54556;BME280;57291;37.520;15.106;2023-03-21T02:00:56;101193.44;;;12.43;100.00
54556;BME280;57291;37.520;15.106;2023-03-21T02:03:31;101194.34;;;12.39;100.00
54556;BME280;57291;37.520;15.106;2023-03-21T02:06:31;101193.03;;;12.36;100.00
54556;BME280;57291;37.520;15.106;2023-03-21T02:09:11;101192.00;;;12.32;100.00
54556;BME280;57291;37.520;15.106;2023-03-21T02:11:40;101188.75;;;12.30;100.00
54556;BME280;57291;37.520;15.106;2023-03-21T02:14:16;101192.59;;;12.29;100.00
54556;BME280;57291;37.520;15.106;2023-03-21T02:17:18;101183.38;;;12.25;100.00
54556;BME280;57291;37.520;15.106;2023-03-21T02:23:00;101169.25;;;12.23;100.00
54556;BME280;57291;37.520;15.106;2023-03-21T02:25:48;101156.19;;;12.20;100.00
54556;BME280;57291;37.520;15.106;2023-03-21T02:34:02;101138.88;;;12.11;100.00
54556;BME280;57291;37.520;15.106;2023-03-21T02:48:02;101131.78;;;12.15;100.00
54556;BME280;57291;37.520;15.106;2023-03-21T02:50:45;101127.13;;;12.15;100.00
54556;BME280;57291;37.520;15.106;2023-03-21T02:53:19;101118.16;;;12.15;100.00
54556;BME280;57291;37.520;15.106;2023-03-21T02:55:49;101123.88;;;12.13;100.00
54556;BME280;57291;37.520;15.106;2023-03-21T02:58:21;101128.53;;;12.13;100.00
54556;BME280;57291;37.520;15.106;2023-03-21T03:00:54;101131.56;;;12.11;100.00
54556;BME280;57291;37.520;15.106;2023-03-21T03:03:34;101143.16;;;12.17;100.00
54556;BME280;57291;37.520;15.106;2023-03-21T03:07:01;101130.38;;;12.17;100.00
54556;BME280;57291;37.520;15.106;2023-03-21T03:09:23;101132.78;;;12.19;100.00
54556;BME280;57291;37.520;15.106;2023-03-21T03:26:32;101150.47;;;12.22;100.00
54556;BME280;57291;37.520;15.106;2023-03-21T03:29:05;101132.19;;;12.22;100.00
54556;BME280;57291;37.520;15.106;2023-03-21T03:31:47;101106.28;;;12.25;100.00
54556;BME280;57291;37.520;15.106;2023-03-21T03:34:20;101124.31;;;12.20;100.00
54556;BME280;57291;37.520;15.106;2023-03-21T03:36:52;101134.63;;;12.24;100.00
54556;BME280;57291;37.520;15.106;2023-03-21T03:39:33;101118.72;;;12.31;100.00
54556;BME280;57291;37.520;15.106;2023-03-21T03:42:10;101132.25;;;12.36;100.00
54556;BME280;57291;37.520;15.106;2023-03-21T03:45:01;101134.09;;;12.40;100.00
54556;BME280;57291;37.520;15.106;2023-03-21T03:47:33;101136.84;;;12.40;100.00
54556;BME280;57291;37.520;15.106;2023-03-21T03:50:39;101144.06;;;12.31;100.00
54556;BME280;57291;37.520;15.106;2023-03-21T03:55:46;101139.84;;;12.20;100.00
54556;BME280;57291;37.520;15.106;2023-03-21T03:58:20;101139.03;;;12.19;100.00
54556;BME280;57291;37.520;15.106;2023-03-21T04:00:55;101142.88;;;12.18;100.00
54556;BME280;57291;37.520;15.106;2023-03-21T04:03:23;101144.50;;;12.19;100.00
54556;BME280;57291;37.520;15.106;2023-03-21T04:05:51;101140.44;;;12.17;100.00
54556;BME280;57291;37.520;15.106;2023-03-21T04:08:18;101139.72;;;12.11;100.00
54556;BME280;57291;37.520;15.106;2023-03-21T04:10:50;101133.75;;;12.09;100.00
54556;BME280;57291;37.520;15.106;2023-03-21T04:13:19;101131.63;;;12.06;100.00
54556;BME280;57291;37.520;15.106;2023-03-21T04:16:03;101143.31;;;12.07;100.00
54556;BME280;57291;37.520;15.106;2023-03-21T04:18:30;101146.34;;;12.05;100.00
54556;BME280;57291;37.520;15.106;2023-03-21T04:20:58;101150.47;;;12.03;100.00
54556;BME280;57291;37.520;15.106;2023-03-21T04:23:28;101145.81;;;12.03;100.00
54556;BME280;57291;37.520;15.106;2023-03-21T04:25:55;101148.84;;;12.02;100.00
54556;BME280;57291;37.520;15.106;2023-03-21T04:28:34;101151.84;;;12.00;100.00
54556;BME280;57291;37.520;15.106;2023-03-21T04:31:32;101161.16;;;11.99;100.00
54556;BME280;57291;37.520;15.106;2023-03-21T04:34:06;101149.44;;;11.99;100.00
54556;BME280;57291;37.520;15.106;2023-03-21T04:36:44;101136.63;;;11.99;100.00
54556;BME280;57291;37.520;15.106;2023-03-21T04:39:13;101132.56;;;11.96;100.00
54556;BME280;57291;37.520;15.106;2023-03-21T04:41:45;101134.19;;;11.97;100.00
54556;BME280;57291;37.520;15.106;2023-03-21T04:44:14;101133.09;;;11.99;100.00
54556;BME280;57291;37.520;15.106;2023-03-21T04:46:42;101128.16;;;12.01;100.00
54556;BME280;57291;37.520;15.106;2023-03-21T04:49:10;101127.88;;;12.02;100.00
54556;BME280;57291;37.520;15.106;2023-03-21T04:51:38;101125.94;;;12.03;100.00
54556;BME280;57291;37.520;15.106;2023-03-21T04:54:09;101123.53;;;12.01;100.00
54556;BME280;57291;37.520;15.106;2023-03-21T04:56:35;101128.16;;;12.01;100.00
54556;BME280;57291;37.520;15.106;2023-03-21T04:59:12;101132.41;;;12.07;100.00
54556;BME280;57291;37.520;15.106;2023-03-21T05:01:40;101131.34;;;12.08;100.00
54556;BME280;57291;37.520;15.106;2023-03-21T05:04:11;101127.50;;;12.09;100.00
54556;BME280;57291;37.520;15.106;2023-03-21T05:06:39;101121.84;;;12.05;100.00
54556;BME280;57291;37.520;15.106;2023-03-21T05:09:08;101120.50;;;12.03;100.00
54556;BME280;57291;37.520;15.106;2023-03-21T05:11:38;101127.88;;;12.02;100.00
54556;BME280;57291;37.520;15.106;2023-03-21T05:14:10;101128.69;;;12.03;100.00
54556;BME280;57291;37.520;15.106;2023-03-21T05:16:41;101134.66;;;12.05;100.00
54556;BME280;57291;37.520;15.106;2023-03-21T05:19:15;101134.94;;;12.03;100.00
54556;BME280;57291;37.520;15.106;2023-03-21T05:21:45;101129.19;;;12.05;100.00
54556;BME280;57291;37.520;15.106;2023-03-21T05:24:19;101136.53;;;12.04;100.00
54556;BME280;57291;37.520;15.106;2023-03-21T05:26:47;101142.59;;;12.01;100.00
54556;BME280;57291;37.520;15.106;2023-03-21T05:29:21;101141.06;;;11.95;100.00
54556;BME280;57291;37.520;15.106;2023-03-21T05:31:58;101146.78;;;11.93;100.00
54556;BME280;57291;37.520;15.106;2023-03-21T05:34:27;101143.84;;;11.90;100.00
54556;BME280;57291;37.520;15.106;2023-03-21T05:36:54;101146.28;;;11.91;100.00
54556;BME280;57291;37.520;15.106;2023-03-21T05:39:26;101153.94;;;11.89;100.00
54556;BME280;57291;37.520;15.106;2023-03-21T05:42:01;101152.91;;;11.85;100.00
54556;BME280;57291;37.520;15.106;2023-03-21T05:44:29;101147.44;;;11.85;100.00
54556;BME280;57291;37.520;15.106;2023-03-21T05:46:58;101138.47;;;11.85;100.00
54556;BME280;57291;37.520;15.106;2023-03-21T05:49:35;101133.25;;;11.88;100.00
54556;BME280;57291;37.520;15.106;2023-03-21T05:52:03;101129.41;;;11.89;100.00
54556;BME280;57291;37.520;15.106;2023-03-21T05:54:31;101128.16;;;12.01;100.00
54556;BME280;57291;37.520;15.106;2023-03-21T05:56:58;101129.09;;;12.10;100.00
54556;BME280;57291;37.520;15.106;2023-03-21T05:59:51;101129.75;;;12.39;100.00
54556;BME280;57291;37.520;15.106;2023-03-21T06:02:18;101135.91;;;13.24;100.00
54556;BME280;57291;37.520;15.106;2023-03-21T06:04:46;101135.28;;;14.05;96.10
54556;BME280;57291;37.520;15.106;2023-03-21T06:07:16;101130.66;;;15.04;94.37
54556;BME280;57291;37.520;15.106;2023-03-21T06:09:43;101129.44;;;16.02;92.45
54556;BME280;57291;37.520;15.106;2023-03-21T06:12:12;101133.31;;;17.18;89.76
54556;BME280;57291;37.520;15.106;2023-03-21T06:14:58;101127.25;;;18.13;83.01
54556;BME280;57291;37.520;15.106;2023-03-21T06:17:32;101131.78;;;18.96;77.44
54556;BME280;57291;37.520;15.106;2023-03-21T06:20:04;101122.34;;;19.83;72.58
54556;BME280;57291;37.520;15.106;2023-03-21T06:22:40;101126.72;;;19.72;63.82
54556;BME280;57291;37.520;15.106;2023-03-21T06:25:08;101125.44;;;19.94;65.82
54556;BME280;57291;37.520;15.106;2023-03-21T06:27:36;101129.50;;;20.41;61.93
54556;BME280;57291;37.520;15.106;2023-03-21T06:30:06;101123.13;;;20.24;60.08
54556;BME280;57291;37.520;15.106;2023-03-21T06:32:41;101123.81;;;19.93;59.36
54556;BME280;57291;37.520;15.106;2023-03-21T06:35:12;101130.94;;;19.94;60.97
54556;BME280;57291;37.520;15.106;2023-03-21T06:37:39;101130.44;;;20.32;60.86
54556;BME280;57291;37.520;15.106;2023-03-21T06:40:09;101129.69;;;20.20;60.47
54556;BME280;57291;37.520;15.106;2023-03-21T06:42:36;101131.66;;;19.91;59.50
54556;BME280;57291;37.520;15.106;2023-03-21T06:45:09;101134.13;;;20.08;59.60
54556;BME280;57291;37.520;15.106;2023-03-21T06:47:36;101130.41;;;19.64;61.79
54556;BME280;57291;37.520;15.106;2023-03-21T06:50:10;101125.03;;;20.64;58.89
54556;BME280;57291;37.520;15.106;2023-03-21T06:52:40;101125.56;;;20.54;58.92
54556;BME280;57291;37.520;15.106;2023-03-21T06:55:08;101143.72;;;20.55;58.80
54556;BME280;57291;37.520;15.106;2023-03-21T06:57:36;101138.91;;;20.52;58.77
54556;BME280;57291;37.520;15.106;2023-03-21T07:00:05;101136.94;;;20.52;58.43
54556;BME280;57291;37.520;15.106;2023-03-21T07:02:39;101141.09;;;21.22;57.56
54556;BME280;57291;37.520;15.106;2023-03-21T07:05:16;101145.75;;;21.34;55.52
54556;BME280;57291;37.520;15.106;2023-03-21T07:07:43;101149.69;;;21.33;54.87
54556;BME280;57291;37.520;15.106;2023-03-21T07:10:11;101148.59;;;21.21;54.64
54556;BME280;57291;37.520;15.106;2023-03-21T07:12:46;101144.41;;;20.96;54.46
54556;BME280;57291;37.520;15.106;2023-03-21T07:15:23;101152.00;;;21.46;53.29
54556;BME280;57291;37.520;15.106;2023-03-21T07:17:51;101151.53;;;21.28;53.14
54556;BME280;57291;37.520;15.106;2023-03-21T07:20:18;101166.16;;;20.97;54.03
54556;BME280;57291;37.520;15.106;2023-03-21T07:22:45;101166.31;;;20.89;54.52
54556;BME280;57291;37.520;15.106;2023-03-21T07:25:13;101165.06;;;20.70;55.66
54556;BME280;57291;37.520;15.106;2023-03-21T07:27:41;101160.56;;;20.37;56.48
54556;BME280;57291;37.520;15.106;2023-03-21T07:30:09;101161.47;;;20.42;57.14
54556;BME280;57291;37.520;15.106;2023-03-21T07:32:37;101165.75;;;20.67;56.69
54556;BME280;57291;37.520;15.106;2023-03-21T07:35:07;101158.31;;;21.15;55.41
54556;BME280;57291;37.520;15.106;2023-03-21T07:37:34;101167.78;;;20.54;56.27
54556;BME280;57291;37.520;15.106;2023-03-21T07:40:06;101166.53;;;20.52;55.76
54556;BME280;57291;37.520;15.106;2023-03-21T07:42:41;101170.59;;;20.70;54.19
54556;BME280;57291;37.520;15.106;2023-03-21T07:45:12;101176.03;;;20.82;53.97
54556;BME280;57291;37.520;15.106;2023-03-21T07:47:47;101170.28;;;21.19;54.03
54556;BME280;57291;37.520;15.106;2023-03-21T07:50:15;101177.41;;;21.20;52.98
54556;BME280;57291;37.520;15.106;2023-03-21T07:52:43;101176.34;;;20.65;53.02
54556;BME280;57291;37.520;15.106;2023-03-21T07:55:10;101174.38;;;19.60;56.37
54556;BME280;57291;37.520;15.106;2023-03-21T07:57:38;101177.31;;;18.61;58.87
54556;BME280;57291;37.520;15.106;2023-03-21T08:00:06;101175.53;;;18.44;59.95
54556;BME280;57291;37.520;15.106;2023-03-21T08:02:40;101173.38;;;18.28;61.35
54556;BME280;57291;37.520;15.106;2023-03-21T08:05:08;101174.13;;;18.38;62.39
54556;BME280;57291;37.520;15.106;2023-03-21T08:07:37;101178.06;;;18.28;61.82
54556;BME280;57291;37.520;15.106;2023-03-21T08:10:05;101182.84;;;17.98;61.62
54556;BME280;57291;37.520;15.106;2023-03-21T08:12:32;101180.94;;;17.60;64.25
54556;BME280;57291;37.520;15.106;2023-03-21T08:14:59;101183.56;;;17.09;65.07
54556;BME280;57291;37.520;15.106;2023-03-21T08:17:27;101183.34;;;16.76;68.86
54556;BME280;57291;37.520;15.106;2023-03-21T08:19:54;101179.16;;;16.44;70.33
54556;BME280;57291;37.520;15.106;2023-03-21T08:22:21;101182.38;;;16.20;71.06
54556;BME280;57291;37.520;15.106;2023-03-21T08:24:48;101178.03;;;16.19;72.50
54556;BME280;57291;37.520;15.106;2023-03-21T08:27:16;101178.66;;;16.25;72.66
54556;BME280;57291;37.520;15.106;2023-03-21T08:29:44;101172.69;;;16.14;71.44
54556;BME280;57291;37.520;15.106;2023-03-21T08:32:11;101172.38;;;16.07;70.65
54556;BME280;57291;37.520;15.106;2023-03-21T08:34:38;101171.88;;;16.22;72.19
54556;BME280;57291;37.520;15.106;2023-03-21T08:37:08;101175.28;;;16.36;70.79
54556;BME280;57291;37.520;15.106;2023-03-21T08:39:35;101173.00;;;16.21;70.29
54556;BME280;57291;37.520;15.106;2023-03-21T08:42:03;101165.59;;;16.04;69.70
54556;BME280;57291;37.520;15.106;2023-03-21T08:44:31;101170.94;;;16.09;71.43
54556;BME280;57291;37.520;15.106;2023-03-21T08:46:58;101165.44;;;16.09;70.82
54556;BME280;57291;37.520;15.106;2023-03-21T08:49:26;101172.84;;;16.17;70.19
54556;BME280;57291;37.520;15.106;2023-03-21T08:51:56;101173.34;;;16.11;72.67
54556;BME280;57291;37.520;15.106;2023-03-21T08:54:23;101169.94;;;15.97;70.78
54556;BME280;57291;37.520;15.106;2023-03-21T08:56:51;101163.00;;;15.90;72.35
54556;BME280;57291;37.520;15.106;2023-03-21T08:59:19;101160.72;;;15.92;75.06
54556;BME280;57291;37.520;15.106;2023-03-21T09:01:46;101158.97;;;15.88;74.98
54556;BME280;57291;37.520;15.106;2023-03-21T09:04:13;101165.44;;;16.01;76.44
54556;BME280;57291;37.520;15.106;2023-03-21T09:06:41;101160.75;;;16.10;75.26
54556;BME280;57291;37.520;15.106;2023-03-21T09:09:11;101164.31;;;16.28;73.24
54556;BME280;57291;37.520;15.106;2023-03-21T09:11:38;101161.22;;;16.38;73.54
54556;BME280;57291;37.520;15.106;2023-03-21T09:14:06;101158.50;;;16.29;74.33
54556;BME280;57291;37.520;15.106;2023-03-21T09:16:33;101158.00;;;16.18;73.88
54556;BME280;57291;37.520;15.106;2023-03-21T09:19:04;101159.31;;;16.04;74.27
54556;BME280;57291;37.520;15.106;2023-03-21T09:21:35;101166.66;;;15.68;77.36
54556;BME280;57291;37.520;15.106;2023-03-21T09:24:03;101157.81;;;15.80;78.81
54556;BME280;57291;37.520;15.106;2023-03-21T09:26:32;101156.72;;;16.16;77.21
54556;BME280;57291;37.520;15.106;2023-03-21T09:28:59;101162.19;;;16.25;74.53
54556;BME280;57291;37.520;15.106;2023-03-21T09:31:27;101165.75;;;15.90;74.83
54556;BME280;57291;37.520;15.106;2023-03-21T09:33:54;101170.97;;;15.61;76.18
54556;BME280;57291;37.520;15.106;2023-03-21T09:36:22;101172.41;;;15.58;78.06
54556;BME280;57291;37.520;15.106;2023-03-21T09:38:51;101160.72;;;15.75;77.62
54556;BME280;57291;37.520;15.106;2023-03-21T09:47:17;101169.78;;;16.02;79.04
54556;BME280;57291;37.520;15.106;2023-03-21T09:52:57;101177.72;;;16.29;77.90
54556;BME280;57291;37.520;15.106;2023-03-21T09:55:33;101171.88;;;16.57;76.78
54556;BME280;57291;37.520;15.106;2023-03-21T09:58:06;101168.63;;;16.72;73.73
54556;BME280;57291;37.520;15.106;2023-03-21T10:00:38;101180.91;;;16.75;74.67
54556;BME280;57291;37.520;15.106;2023-03-21T10:03:19;101179.94;;;16.79;72.07
54556;BME280;57291;37.520;15.106;2023-03-21T10:05:51;101175.53;;;16.96;72.86
54556;BME280;57291;37.520;15.106;2023-03-21T10:08:21;101183.97;;;16.82;71.02
54556;BME280;57291;37.520;15.106;2023-03-21T10:10:57;101181.84;;;16.96;72.05
54556;BME280;57291;37.520;15.106;2023-03-21T10:13:27;101168.16;;;17.26;68.48
54556;BME280;57291;37.520;15.106;2023-03-21T10:15:57;101175.94;;;17.53;67.36
54556;BME280;57291;37.520;15.106;2023-03-21T10:18:26;101184.81;;;17.21;67.79
54556;BME280;57291;37.520;15.106;2023-03-21T10:20:55;101189.44;;;16.73;70.82
54556;BME280;57291;37.520;15.106;2023-03-21T10:23:27;101182.84;;;16.65;70.30
54556;BME280;57291;37.520;15.106;2023-03-21T10:26:00;101185.28;;;16.76;70.25
54556;BME280;57291;37.520;15.106;2023-03-21T10:28:32;101183.00;;;16.34;70.48
54556;BME280;57291;37.520;15.106;2023-03-21T10:31:20;101182.38;;;16.03;74.15
54556;BME280;57291;37.520;15.106;2023-03-21T10:33:51;101179.94;;;16.18;75.30
54556;BME280;57291;37.520;15.106;2023-03-21T10:36:22;101171.91;;;16.39;74.01
54556;BME280;57291;37.520;15.106;2023-03-21T10:41:27;101172.22;;;16.55;71.98
54556;BME280;57291;37.520;15.106;2023-03-21T10:44:30;101182.53;;;16.58;71.67
54556;BME280;57291;37.520;15.106;2023-03-21T10:47:03;101175.25;;;16.45;72.92
54556;BME280;57291;37.520;15.106;2023-03-21T10:49:31;101175.25;;;16.45;73.54
54556;BME280;57291;37.520;15.106;2023-03-21T10:52:21;101176.06;;;16.54;73.38
54556;BME280;57291;37.520;15.106;2023-03-21T10:55:24;101170.44;;;16.33;74.26
54556;BME280;57291;37.520;15.106;2023-03-21T10:57:55;101160.91;;;16.31;73.60
54556;BME280;57291;37.520;15.106;2023-03-21T11:00:33;101165.88;;;16.55;72.95
54556;BME280;57291;37.520;15.106;2023-03-21T11:03:02;101163.59;;;16.74;72.32
54556;BME280;57291;37.520;15.106;2023-03-21T11:05:38;101152.41;;;17.05;71.45
54556;BME280;57291;37.520;15.106;2023-03-21T11:08:13;101152.19;;;17.19;71.48
54556;BME280;57291;37.520;15.106;2023-03-21T11:11:02;101154.84;;;17.37;69.69
54556;BME280;57291;37.520;15.106;2023-03-21T11:16:08;101148.91;;;16.87;67.64
54556;BME280;57291;37.520;15.106;2023-03-21T11:18:48;101144.69;;;16.99;69.20
54556;BME280;57291;37.520;15.106;2023-03-21T11:21:17;101125.28;;;17.04;69.50
54556;BME280;57291;37.520;15.106;2023-03-21T11:23:47;101143.22;;;17.01;70.20
54556;BME280;57291;37.520;15.106;2023-03-21T11:26:21;101133.00;;;17.10;69.97
54556;BME280;57291;37.520;15.106;2023-03-21T11:28:52;101124.84;;;17.61;67.03
54556;BME280;57291;37.520;15.106;2023-03-21T11:31:20;101132.34;;;17.73;68.97
54556;BME280;57291;37.520;15.106;2023-03-21T11:33:53;101126.09;;;17.34;69.48
54556;BME280;57291;37.520;15.106;2023-03-21T11:41:50;101125.06;;;16.53;71.29
54556;BME280;57291;37.520;15.106;2023-03-21T11:44:42;101121.19;;;16.54;73.28
54556;BME280;57291;37.520;15.106;2023-03-21T11:47:10;101110.56;;;16.53;71.51
54556;BME280;57291;37.520;15.106;2023-03-21T11:49:37;101110.56;;;16.53;70.48
54556;BME280;57291;37.520;15.106;2023-03-21T11:52:13;101110.31;;;16.84;72.21
54556;BME280;57291;37.520;15.106;2023-03-21T12:03:45;101096.47;;;17.78;66.98
54556;BME280;57291;37.520;15.106;2023-03-21T12:08:57;101089.56;;;17.04;69.67
54556;BME280;57291;37.520;15.106;2023-03-21T12:11:55;101079.59;;;16.99;70.53
54556;BME280;57291;37.520;15.106;2023-03-21T12:19:55;101074.63;;;16.84;70.85
54556;BME280;57291;37.520;15.106;2023-03-21T12:25:20;101080.63;;;16.77;72.45
54556;BME280;57291;37.520;15.106;2023-03-21T12:33:41;101074.19;;;16.64;71.60
54556;BME280;57291;37.520;15.106;2023-03-21T12:44:46;101066.09;;;16.68;71.07
54556;BME280;57291;37.520;15.106;2023-03-21T12:47:15;101055.97;;;16.60;70.58
54556;BME280;57291;37.520;15.106;2023-03-21T12:52:25;101061.91;;;16.79;70.71
54556;BME280;57291;37.520;15.106;2023-03-21T12:55:06;101068.25;;;16.62;71.48
54556;BME280;57291;37.520;15.106;2023-03-21T12:57:46;101063.56;;;16.54;72.21
54556;BME280;57291;37.520;15.106;2023-03-21T13:00:46;101065.81;;;16.61;70.88
54556;BME280;57291;37.520;15.106;2023-03-21T13:03:40;101061.69;;;16.93;68.74
54556;BME280;57291;37.520;15.106;2023-03-21T13:06:12;101059.44;;;17.25;67.98
54556;BME280;57291;37.520;15.106;2023-03-21T13:08:57;101053.06;;;17.33;67.08
54556;BME280;57291;37.520;15.106;2023-03-21T13:11:28;101054.53;;;17.30;66.54
54556;BME280;57291;37.520;15.106;2023-03-21T13:14:03;101048.91;;;17.27;65.95
54556;BME280;57291;37.520;15.106;2023-03-21T13:25:03;101044.16;;;16.68;65.20
54556;BME280;57291;37.520;15.106;2023-03-21T13:27:33;101049.34;;;16.78;64.05
54556;BME280;57291;37.520;15.106;2023-03-21T13:32:53;101041.47;;;16.59;64.67
54556;BME280;57291;37.520;15.106;2023-03-21T13:35:25;101051.81;;;16.45;65.82
54556;BME280;57291;37.520;15.106;2023-03-21T13:38:23;101049.59;;;16.30;66.63
54556;BME280;57291;37.520;15.106;2023-03-21T13:41:24;101056.09;;;16.16;70.24
54556;BME280;57291;37.520;15.106;2023-03-21T13:43:54;101045.28;;;16.11;70.43
54556;BME280;57291;37.520;15.106;2023-03-21T13:46:50;101045.13;;;16.08;69.36
54556;BME280;57291;37.520;15.106;2023-03-21T13:49:34;101045.44;;;16.06;68.62
54556;BME280;57291;37.520;15.106;2023-03-21T13:54:54;101026.53;;;16.22;67.82
54556;BME280;57291;37.520;15.106;2023-03-21T14:03:08;100992.78;;;16.86;62.24
54556;BME280;57291;37.520;15.106;2023-03-21T14:05:36;100984.00;;;17.43;60.79
54556;BME280;57291;37.520;15.106;2023-03-21T14:08:09;100981.38;;;17.68;59.35
54556;BME280;57291;37.520;15.106;2023-03-21T14:10:59;100978.53;;;17.97;59.53
54556;BME280;57291;37.520;15.106;2023-03-21T14:13:30;100986.81;;;17.55;64.02
54556;BME280;57291;37.520;15.106;2023-03-21T14:16:10;100985.03;;;16.88;65.55
54556;BME280;57291;37.520;15.106;2023-03-21T14:18:49;100979.66;;;16.53;67.45
54556;BME280;57291;37.520;15.106;2023-03-21T14:21:23;100984.41;;;16.35;68.04
54556;BME280;57291;37.520;15.106;2023-03-21T14:24:18;100982.19;;;16.29;68.84
54556;BME280;57291;37.520;15.106;2023-03-21T14:26:49;100977.50;;;16.29;67.34
54556;BME280;57291;37.520;15.106;2023-03-21T14:29:25;100970.38;;;16.28;68.76
54556;BME280;57291;37.520;15.106;2023-03-21T14:31:54;100971.22;;;16.29;70.83
54556;BME280;57291;37.520;15.106;2023-03-21T14:34:23;100965.00;;;16.49;72.01
54556;BME280;57291;37.520;15.106;2023-03-21T14:36:52;100969.97;;;16.56;70.97
54556;BME280;57291;37.520;15.106;2023-03-21T14:39:31;100966.16;;;16.39;71.79
54556;BME280;57291;37.520;15.106;2023-03-21T14:42:10;100963.16;;;16.24;73.14
54556;BME280;57291;37.520;15.106;2023-03-21T14:44:46;100959.25;;;16.25;72.41
54556;BME280;57291;37.520;15.106;2023-03-21T14:47:24;100963.72;;;16.00;74.45
54556;BME280;57291;37.520;15.106;2023-03-21T14:49:52;100950.50;;;15.93;75.09
54556;BME280;57291;37.520;15.106;2023-03-21T14:52:32;100958.69;;;16.02;75.74
54556;BME280;57291;37.520;15.106;2023-03-21T14:55:03;100949.44;;;16.15;75.15
54556;BME280;57291;37.520;15.106;2023-03-21T14:57:32;100960.47;;;16.06;74.76
54556;BME280;57291;37.520;15.106;2023-03-21T15:00:03;100949.00;;;16.04;74.59
54556;BME280;57291;37.520;15.106;2023-03-21T15:02:50;100958.69;;;16.02;75.16